Terminal Aerodrome Forecast
Issued by NWS Jackson, KY

Home | Current Version | Previous Version | Text Only | Print | Product List | Glossary On
Versions: 1 2 3 4 5 6 7 8 9 10 11 12 13 14 15
000
FTUS43 KJKL 151137
TAFLOZ
TAF
KLOZ 151137Z 1512/1612 VRB03KT P6SM OVC035
     FM151700 27010G17KT P6SM BKN035
     FM152300 VRB04KT P6SM FEW040=

USA.gov is the U.S. government's official web portal to all federal, state and local government web resources and services.